sensor_id;sensor_type;location;lat;lon;timestamp;P1;durP1;ratioP1;P2;durP2;ratioP2
5058;SDS011;2548;52.050;11.036;2022-11-15T00:01:33;36.58;;;23.13;;
5058;SDS011;2548;52.050;11.036;2022-11-15T00:04:21;37.38;;;23.13;;
5058;SDS011;2548;52.050;11.036;2022-11-15T00:07:08;32.38;;;20.42;;
5058;SDS011;2548;52.050;11.036;2022-11-15T00:09:54;35.60;;;22.83;;
5058;SDS011;2548;52.050;11.036;2022-11-15T00:12:40;35.85;;;22.92;;
5058;SDS011;2548;52.050;11.036;2022-11-15T00:15:26;34.33;;;20.85;;
5058;SDS011;2548;52.050;11.036;2022-11-15T00:18:13;38.78;;;22.45;;
5058;SDS011;2548;52.050;11.036;2022-11-15T00:21:03;29.50;;;20.50;;
5058;SDS011;2548;52.050;11.036;2022-11-15T00:23:51;29.50;;;20.95;;
5058;SDS011;2548;52.050;11.036;2022-11-15T00:26:37;34.80;;;21.60;;
5058;SDS011;2548;52.050;11.036;2022-11-15T00:29:23;34.20;;;21.20;;
5058;SDS011;2548;52.050;11.036;2022-11-15T00:32:09;28.02;;;19.02;;
5058;SDS011;2548;52.050;11.036;2022-11-15T00:34:55;25.42;;;17.65;;
5058;SDS011;2548;52.050;11.036;2022-11-15T00:37:41;28.77;;;19.73;;
5058;SDS011;2548;52.050;11.036;2022-11-15T00:40:29;29.48;;;19.45;;
5058;SDS011;2548;52.050;11.036;2022-11-15T00:43:15;32.00;;;19.45;;
5058;SDS011;2548;52.050;11.036;2022-11-15T00:46:01;30.23;;;19.63;;
5058;SDS011;2548;52.050;11.036;2022-11-15T00:48:47;29.35;;;18.17;;
5058;SDS011;2548;52.050;11.036;2022-11-15T00:51:33;29.40;;;19.15;;
5058;SDS011;2548;52.050;11.036;2022-11-15T00:54:19;33.38;;;19.52;;
5058;SDS011;2548;52.050;11.036;2022-11-15T00:57:06;29.33;;;17.50;;
5058;SDS011;2548;52.050;11.036;2022-11-15T00:59:53;30.52;;;18.55;;
5058;SDS011;2548;52.050;11.036;2022-11-15T01:02:39;24.08;;;18.17;;
5058;SDS011;2548;52.050;11.036;2022-11-15T01:05:25;24.38;;;17.90;;
5058;SDS011;2548;52.050;11.036;2022-11-15T01:08:11;26.48;;;18.15;;
5058;SDS011;2548;52.050;11.036;2022-11-15T01:11:02;27.83;;;16.02;;
5058;SDS011;2548;52.050;11.036;2022-11-15T01:13:50;24.35;;;16.77;;
5058;SDS011;2548;52.050;11.036;2022-11-15T01:16:36;22.33;;;15.38;;
5058;SDS011;2548;52.050;11.036;2022-11-15T01:19:22;24.25;;;17.25;;
5058;SDS011;2548;52.050;11.036;2022-11-15T01:22:08;24.60;;;17.33;;
5058;SDS011;2548;52.050;11.036;2022-11-15T01:24:54;25.98;;;17.73;;
5058;SDS011;2548;52.050;11.036;2022-11-15T01:27:40;23.25;;;17.40;;
5058;SDS011;2548;52.050;11.036;2022-11-15T01:30:28;29.95;;;19.23;;
5058;SDS011;2548;52.050;11.036;2022-11-15T01:33:13;24.38;;;16.58;;
5058;SDS011;2548;52.050;11.036;2022-11-15T01:36:02;31.77;;;19.95;;
5058;SDS011;2548;52.050;11.036;2022-11-15T01:38:52;30.85;;;16.95;;
5058;SDS011;2548;52.050;11.036;2022-11-15T01:41:38;28.58;;;18.08;;
5058;SDS011;2548;52.050;11.036;2022-11-15T01:44:36;27.20;;;17.23;;
5058;SDS011;2548;52.050;11.036;2022-11-15T01:47:28;34.38;;;17.45;;
5058;SDS011;2548;52.050;11.036;2022-11-15T01:50:17;24.40;;;17.23;;
5058;SDS011;2548;52.050;11.036;2022-11-15T01:53:06;30.17;;;18.52;;
5058;SDS011;2548;52.050;11.036;2022-11-15T01:55:52;23.08;;;16.77;;
5058;SDS011;2548;52.050;11.036;2022-11-15T01:58:39;42.30;;;19.92;;
5058;SDS011;2548;52.050;11.036;2022-11-15T02:01:27;23.85;;;17.08;;
5058;SDS011;2548;52.050;11.036;2022-11-15T02:04:18;28.67;;;18.48;;
5058;SDS011;2548;52.050;11.036;2022-11-15T02:07:06;25.58;;;17.52;;
5058;SDS011;2548;52.050;11.036;2022-11-15T02:09:56;28.30;;;17.60;;
5058;SDS011;2548;52.050;11.036;2022-11-15T02:12:46;24.73;;;16.77;;
5058;SDS011;2548;52.050;11.036;2022-11-15T02:15:34;24.85;;;16.98;;
5058;SDS011;2548;52.050;11.036;2022-11-15T02:18:26;22.60;;;15.52;;
5058;SDS011;2548;52.050;11.036;2022-11-15T02:21:20;24.85;;;17.67;;
5058;SDS011;2548;52.050;11.036;2022-11-15T02:24:27;24.45;;;16.67;;
5058;SDS011;2548;52.050;11.036;2022-11-15T02:31:13;25.75;;;16.83;;
5058;SDS011;2548;52.050;11.036;2022-11-15T02:34:06;28.25;;;15.95;;
5058;SDS011;2548;52.050;11.036;2022-11-15T02:36:59;33.22;;;18.58;;
5058;SDS011;2548;52.050;11.036;2022-11-15T02:39:55;25.90;;;15.93;;
5058;SDS011;2548;52.050;11.036;2022-11-15T02:42:47;24.70;;;16.67;;
5058;SDS011;2548;52.050;11.036;2022-11-15T02:45:56;22.92;;;16.20;;
5058;SDS011;2548;52.050;11.036;2022-11-15T02:48:49;22.27;;;16.30;;
5058;SDS011;2548;52.050;11.036;2022-11-15T02:51:36;21.90;;;15.25;;
5058;SDS011;2548;52.050;11.036;2022-11-15T02:54:23;26.58;;;18.20;;
5058;SDS011;2548;52.050;11.036;2022-11-15T02:57:11;30.77;;;16.98;;
5058;SDS011;2548;52.050;11.036;2022-11-15T03:00:03;27.80;;;17.92;;
5058;SDS011;2548;52.050;11.036;2022-11-15T03:03:05;24.25;;;16.75;;
5058;SDS011;2548;52.050;11.036;2022-11-15T03:06:05;34.50;;;20.60;;
5058;SDS011;2548;52.050;11.036;2022-11-15T03:09:01;41.60;;;19.08;;
5058;SDS011;2548;52.050;11.036;2022-11-15T03:11:51;32.95;;;19.30;;
5058;SDS011;2548;52.050;11.036;2022-11-15T03:14:46;28.67;;;17.88;;
5058;SDS011;2548;52.050;11.036;2022-11-15T03:17:38;27.75;;;18.52;;
5058;SDS011;2548;52.050;11.036;2022-11-15T03:20:28;32.65;;;19.42;;
5058;SDS011;2548;52.050;11.036;2022-11-15T03:23:16;27.83;;;19.50;;
5058;SDS011;2548;52.050;11.036;2022-11-15T03:26:03;30.17;;;18.98;;
5058;SDS011;2548;52.050;11.036;2022-11-15T03:28:53;26.42;;;17.13;;
5058;SDS011;2548;52.050;11.036;2022-11-15T03:31:42;30.90;;;19.20;;
5058;SDS011;2548;52.050;11.036;2022-11-15T03:34:34;32.47;;;19.60;;
5058;SDS011;2548;52.050;11.036;2022-11-15T03:37:26;23.48;;;16.27;;
5058;SDS011;2548;52.050;11.036;2022-11-15T03:40:19;26.75;;;16.88;;
5058;SDS011;2548;52.050;11.036;2022-11-15T03:43:13;26.08;;;17.40;;
5058;SDS011;2548;52.050;11.036;2022-11-15T03:46:06;28.38;;;17.92;;
5058;SDS011;2548;52.050;11.036;2022-11-15T03:48:59;23.25;;;17.30;;
5058;SDS011;2548;52.050;11.036;2022-11-15T03:51:49;27.83;;;18.13;;
5058;SDS011;2548;52.050;11.036;2022-11-15T03:54:35;26.10;;;16.38;;
5058;SDS011;2548;52.050;11.036;2022-11-15T03:57:23;26.00;;;17.52;;
5058;SDS011;2548;52.050;11.036;2022-11-15T04:00:09;23.25;;;17.95;;
5058;SDS011;2548;52.050;11.036;2022-11-15T04:02:56;26.33;;;17.50;;
5058;SDS011;2548;52.050;11.036;2022-11-15T04:05:42;25.85;;;16.77;;
5058;SDS011;2548;52.050;11.036;2022-11-15T04:08:28;26.63;;;17.40;;
5058;SDS011;2548;52.050;11.036;2022-11-15T04:11:14;28.65;;;19.00;;
5058;SDS011;2548;52.050;11.036;2022-11-15T04:14:01;30.13;;;17.00;;
5058;SDS011;2548;52.050;11.036;2022-11-15T04:16:47;26.95;;;16.13;;
5058;SDS011;2548;52.050;11.036;2022-11-15T04:19:33;26.60;;;17.75;;
5058;SDS011;2548;52.050;11.036;2022-11-15T04:22:37;29.10;;;16.88;;
5058;SDS011;2548;52.050;11.036;2022-11-15T04:25:41;26.15;;;17.90;;
5058;SDS011;2548;52.050;11.036;2022-11-15T04:28:27;27.20;;;17.27;;
5058;SDS011;2548;52.050;11.036;2022-11-15T04:31:14;23.13;;;15.82;;
5058;SDS011;2548;52.050;11.036;2022-11-15T04:34:00;25.20;;;16.85;;
5058;SDS011;2548;52.050;11.036;2022-11-15T04:36:46;24.80;;;16.33;;
5058;SDS011;2548;52.050;11.036;2022-11-15T04:39:49;25.80;;;15.45;;
5058;SDS011;2548;52.050;11.036;2022-11-15T04:42:36;26.40;;;16.42;;
5058;SDS011;2548;52.050;11.036;2022-11-15T04:45:22;24.52;;;15.77;;
5058;SDS011;2548;52.050;11.036;2022-11-15T04:48:09;23.58;;;16.52;;
5058;SDS011;2548;52.050;11.036;2022-11-15T04:50:55;26.50;;;17.45;;
5058;SDS011;2548;52.050;11.036;2022-11-15T04:53:41;23.02;;;16.65;;
5058;SDS011;2548;52.050;11.036;2022-11-15T04:56:27;27.42;;;17.42;;
5058;SDS011;2548;52.050;11.036;2022-11-15T04:59:13;26.83;;;15.85;;
5058;SDS011;2548;52.050;11.036;2022-11-15T05:01:59;25.35;;;15.40;;
5058;SDS011;2548;52.050;11.036;2022-11-15T05:04:47;26.00;;;16.13;;
5058;SDS011;2548;52.050;11.036;2022-11-15T05:07:32;25.35;;;17.73;;
5058;SDS011;2548;52.050;11.036;2022-11-15T05:10:18;23.08;;;15.18;;
5058;SDS011;2548;52.050;11.036;2022-11-15T05:13:04;21.95;;;14.23;;
5058;SDS011;2548;52.050;11.036;2022-11-15T05:15:50;32.20;;;16.95;;
5058;SDS011;2548;52.050;11.036;2022-11-15T05:18:36;21.95;;;12.60;;
5058;SDS011;2548;52.050;11.036;2022-11-15T05:21:26;20.73;;;14.73;;
5058;SDS011;2548;52.050;11.036;2022-11-15T05:24:12;23.02;;;14.23;;
5058;SDS011;2548;52.050;11.036;2022-11-15T05:26:58;20.45;;;14.05;;
5058;SDS011;2548;52.050;11.036;2022-11-15T05:29:44;17.75;;;13.70;;
5058;SDS011;2548;52.050;11.036;2022-11-15T05:32:30;20.33;;;13.82;;
5058;SDS011;2548;52.050;11.036;2022-11-15T05:35:18;24.17;;;13.77;;
5058;SDS011;2548;52.050;11.036;2022-11-15T05:38:13;23.42;;;15.52;;
5058;SDS011;2548;52.050;11.036;2022-11-15T05:41:00;24.65;;;14.85;;
5058;SDS011;2548;52.050;11.036;2022-11-15T05:43:47;21.63;;;14.70;;
5058;SDS011;2548;52.050;11.036;2022-11-15T05:46:35;18.40;;;13.40;;
5058;SDS011;2548;52.050;11.036;2022-11-15T05:49:25;19.80;;;13.73;;
5058;SDS011;2548;52.050;11.036;2022-11-15T05:52:14;22.75;;;13.93;;
5058;SDS011;2548;52.050;11.036;2022-11-15T05:55:05;18.63;;;13.00;;
5058;SDS011;2548;52.050;11.036;2022-11-15T05:57:53;26.90;;;15.50;;
5058;SDS011;2548;52.050;11.036;2022-11-15T06:00:39;18.35;;;12.43;;
5058;SDS011;2548;52.050;11.036;2022-11-15T06:03:27;18.65;;;13.57;;
5058;SDS011;2548;52.050;11.036;2022-11-15T06:06:13;22.77;;;14.25;;
5058;SDS011;2548;52.050;11.036;2022-11-15T06:08:59;18.17;;;12.98;;
5058;SDS011;2548;52.050;11.036;2022-11-15T06:11:47;19.30;;;12.77;;
5058;SDS011;2548;52.050;11.036;2022-11-15T06:14:33;22.85;;;13.27;;
5058;SDS011;2548;52.050;11.036;2022-11-15T06:17:19;23.75;;;14.68;;
5058;SDS011;2548;52.050;11.036;2022-11-15T06:20:05;19.45;;;13.63;;
5058;SDS011;2548;52.050;11.036;2022-11-15T06:22:55;16.42;;;12.55;;
5058;SDS011;2548;52.050;11.036;2022-11-15T06:25:42;16.60;;;12.45;;
5058;SDS011;2548;52.050;11.036;2022-11-15T06:28:29;16.02;;;11.73;;
5058;SDS011;2548;52.050;11.036;2022-11-15T06:31:15;15.25;;;11.18;;
5058;SDS011;2548;52.050;11.036;2022-11-15T06:34:01;20.17;;;12.20;;
5058;SDS011;2548;52.050;11.036;2022-11-15T06:36:47;19.55;;;12.93;;
5058;SDS011;2548;52.050;11.036;2022-11-15T06:39:33;19.60;;;11.68;;
5058;SDS011;2548;52.050;11.036;2022-11-15T06:42:19;16.58;;;10.82;;
5058;SDS011;2548;52.050;11.036;2022-11-15T06:45:07;17.63;;;12.18;;
5058;SDS011;2548;52.050;11.036;2022-11-15T06:47:53;20.60;;;12.50;;
5058;SDS011;2548;52.050;11.036;2022-11-15T06:50:39;18.65;;;11.23;;
5058;SDS011;2548;52.050;11.036;2022-11-15T06:53:26;13.23;;;10.88;;
5058;SDS011;2548;52.050;11.036;2022-11-15T06:56:13;13.20;;;11.45;;
5058;SDS011;2548;52.050;11.036;2022-11-15T06:58:59;15.05;;;11.52;;
5058;SDS011;2548;52.050;11.036;2022-11-15T07:01:46;16.65;;;14.00;;
5058;SDS011;2548;52.050;11.036;2022-11-15T07:04:33;25.95;;;19.42;;
5058;SDS011;2548;52.050;11.036;2022-11-15T07:07:20;23.73;;;19.15;;
5058;SDS011;2548;52.050;11.036;2022-11-15T07:10:07;24.17;;;17.27;;
5058;SDS011;2548;52.050;11.036;2022-11-15T07:12:54;27.15;;;18.27;;
5058;SDS011;2548;52.050;11.036;2022-11-15T07:15:40;30.95;;;23.35;;
5058;SDS011;2548;52.050;11.036;2022-11-15T07:18:28;27.40;;;18.65;;
5058;SDS011;2548;52.050;11.036;2022-11-15T07:21:13;26.45;;;16.20;;
5058;SDS011;2548;52.050;11.036;2022-11-15T07:23:59;22.38;;;14.50;;
5058;SDS011;2548;52.050;11.036;2022-11-15T07:26:45;20.75;;;14.02;;
5058;SDS011;2548;52.050;11.036;2022-11-15T07:29:31;24.73;;;15.55;;
5058;SDS011;2548;52.050;11.036;2022-11-15T07:32:18;17.95;;;12.93;;
5058;SDS011;2548;52.050;11.036;2022-11-15T07:35:05;17.08;;;12.52;;
5058;SDS011;2548;52.050;11.036;2022-11-15T07:37:55;16.98;;;12.25;;
5058;SDS011;2548;52.050;11.036;2022-11-15T07:40:41;26.90;;;13.52;;
5058;SDS011;2548;52.050;11.036;2022-11-15T07:43:27;17.23;;;12.50;;
5058;SDS011;2548;52.050;11.036;2022-11-15T07:46:14;16.40;;;12.15;;
5058;SDS011;2548;52.050;11.036;2022-11-15T07:49:00;15.25;;;11.95;;
5058;SDS011;2548;52.050;11.036;2022-11-15T07:51:47;18.25;;;11.82;;
5058;SDS011;2548;52.050;11.036;2022-11-15T07:54:33;16.70;;;12.32;;
5058;SDS011;2548;52.050;11.036;2022-11-15T07:57:19;16.90;;;11.50;;
5058;SDS011;2548;52.050;11.036;2022-11-15T08:00:06;18.83;;;10.82;;
5058;SDS011;2548;52.050;11.036;2022-11-15T08:02:53;14.45;;;11.15;;
5058;SDS011;2548;52.050;11.036;2022-11-15T08:05:49;26.63;;;13.02;;
5058;SDS011;2548;52.050;11.036;2022-11-15T08:08:37;17.80;;;12.13;;
5058;SDS011;2548;52.050;11.036;2022-11-15T08:14:08;12.98;;;9.60;;
5058;SDS011;2548;52.050;11.036;2022-11-15T08:16:54;16.92;;;11.40;;
5058;SDS011;2548;52.050;11.036;2022-11-15T08:19:41;14.55;;;10.73;;
5058;SDS011;2548;52.050;11.036;2022-11-15T08:22:27;13.00;;;11.02;;
5058;SDS011;2548;52.050;11.036;2022-11-15T08:25:14;19.92;;;12.10;;
5058;SDS011;2548;52.050;11.036;2022-11-15T08:28:02;14.88;;;11.68;;
5058;SDS011;2548;52.050;11.036;2022-11-15T08:30:49;18.17;;;12.18;;
5058;SDS011;2548;52.050;11.036;2022-11-15T08:33:35;14.80;;;9.82;;
5058;SDS011;2548;52.050;11.036;2022-11-15T08:36:21;18.83;;;11.90;;
5058;SDS011;2548;52.050;11.036;2022-11-15T08:39:09;18.48;;;10.43;;
5058;SDS011;2548;52.050;11.036;2022-11-15T08:41:57;16.73;;;11.18;;
5058;SDS011;2548;52.050;11.036;2022-11-15T08:44:43;16.25;;;12.38;;
5058;SDS011;2548;52.050;11.036;2022-11-15T08:47:29;17.90;;;11.20;;
5058;SDS011;2548;52.050;11.036;2022-11-15T08:50:15;19.38;;;11.07;;
5058;SDS011;2548;52.050;11.036;2022-11-15T08:53:05;13.45;;;11.05;;
5058;SDS011;2548;52.050;11.036;2022-11-15T08:55:51;15.18;;;11.50;;
5058;SDS011;2548;52.050;11.036;2022-11-15T08:58:38;22.92;;;15.52;;
5058;SDS011;2548;52.050;11.036;2022-11-15T09:01:25;29.63;;;18.27;;
5058;SDS011;2548;52.050;11.036;2022-11-15T09:04:11;22.70;;;14.82;;
5058;SDS011;2548;52.050;11.036;2022-11-15T09:06:56;22.85;;;16.02;;
5058;SDS011;2548;52.050;11.036;2022-11-15T09:09:42;20.35;;;13.05;;
5058;SDS011;2548;52.050;11.036;2022-11-15T09:12:28;17.48;;;13.88;;
5058;SDS011;2548;52.050;11.036;2022-11-15T09:15:16;21.00;;;14.82;;
5058;SDS011;2548;52.050;11.036;2022-11-15T09:18:03;21.15;;;13.13;;
5058;SDS011;2548;52.050;11.036;2022-11-15T09:20:49;20.63;;;11.65;;
5058;SDS011;2548;52.050;11.036;2022-11-15T09:23:35;17.65;;;12.70;;
5058;SDS011;2548;52.050;11.036;2022-11-15T09:26:22;15.27;;;11.85;;
5058;SDS011;2548;52.050;11.036;2022-11-15T09:29:08;14.50;;;11.95;;
5058;SDS011;2548;52.050;11.036;2022-11-15T09:31:55;16.55;;;11.90;;
5058;SDS011;2548;52.050;11.036;2022-11-15T09:34:41;15.98;;;12.23;;
5058;SDS011;2548;52.050;11.036;2022-11-15T09:37:27;16.52;;;12.27;;
5058;SDS011;2548;52.050;11.036;2022-11-15T09:40:14;14.98;;;12.35;;
5058;SDS011;2548;52.050;11.036;2022-11-15T09:46:25;13.80;;;11.73;;
5058;SDS011;2548;52.050;11.036;2022-11-15T09:49:20;14.77;;;11.70;;
5058;SDS011;2548;52.050;11.036;2022-11-15T09:52:03;17.80;;;12.93;;
5058;SDS011;2548;52.050;11.036;2022-11-15T09:54:31;19.73;;;11.95;;
5058;SDS011;2548;52.050;11.036;2022-11-15T09:57:03;21.25;;;13.00;;
5058;SDS011;2548;52.050;11.036;2022-11-15T09:59:37;19.95;;;13.35;;
5058;SDS011;2548;52.050;11.036;2022-11-15T10:02:21;17.65;;;13.32;;
5058;SDS011;2548;52.050;11.036;2022-11-15T10:05:04;14.65;;;11.93;;
5058;SDS011;2548;52.050;11.036;2022-11-15T10:07:37;18.83;;;12.40;;
5058;SDS011;2548;52.050;11.036;2022-11-15T10:10:14;18.50;;;13.65;;
5058;SDS011;2548;52.050;11.036;2022-11-15T10:12:47;14.55;;;12.13;;
5058;SDS011;2548;52.050;11.036;2022-11-15T10:15:17;17.20;;;12.20;;
5058;SDS011;2548;52.050;11.036;2022-11-15T10:17:53;14.25;;;11.30;;
5058;SDS011;2548;52.050;11.036;2022-11-15T10:20:30;19.00;;;11.20;;
5058;SDS011;2548;52.050;11.036;2022-11-15T10:23:06;15.95;;;11.95;;
5058;SDS011;2548;52.050;11.036;2022-11-15T10:25:37;15.63;;;11.65;;
5058;SDS011;2548;52.050;11.036;2022-11-15T10:28:06;16.33;;;11.23;;
5058;SDS011;2548;52.050;11.036;2022-11-15T10:30:40;18.88;;;11.48;;
5058;SDS011;2548;52.050;11.036;2022-11-15T10:33:11;15.18;;;10.68;;
5058;SDS011;2548;52.050;11.036;2022-11-15T10:35:44;12.52;;;10.50;;
5058;SDS011;2548;52.050;11.036;2022-11-15T10:38:12;12.75;;;9.90;;
5058;SDS011;2548;52.050;11.036;2022-11-15T10:40:40;11.80;;;10.40;;
5058;SDS011;2548;52.050;11.036;2022-11-15T10:43:16;11.32;;;10.13;;
5058;SDS011;2548;52.050;11.036;2022-11-15T10:45:45;14.38;;;11.77;;
5058;SDS011;2548;52.050;11.036;2022-11-15T10:48:21;17.15;;;10.40;;
5058;SDS011;2548;52.050;11.036;2022-11-15T10:50:52;15.38;;;10.95;;
5058;SDS011;2548;52.050;11.036;2022-11-15T10:56:12;12.93;;;11.35;;
5058;SDS011;2548;52.050;11.036;2022-11-15T10:58:41;16.55;;;10.45;;
5058;SDS011;2548;52.050;11.036;2022-11-15T11:01:17;16.13;;;11.93;;
5058;SDS011;2548;52.050;11.036;2022-11-15T11:03:57;18.02;;;11.70;;
5058;SDS011;2548;52.050;11.036;2022-11-15T11:06:29;19.88;;;12.45;;
5058;SDS011;2548;52.050;11.036;2022-11-15T11:09:20;19.52;;;12.10;;
5058;SDS011;2548;52.050;11.036;2022-11-15T11:11:51;21.30;;;12.98;;
5058;SDS011;2548;52.050;11.036;2022-11-15T11:14:20;18.25;;;11.40;;
5058;SDS011;2548;52.050;11.036;2022-11-15T11:16:49;33.05;;;13.48;;
5058;SDS011;2548;52.050;11.036;2022-11-15T11:19:31;17.48;;;12.68;;
5058;SDS011;2548;52.050;11.036;2022-11-15T11:22:17;14.00;;;12.25;;
5058;SDS011;2548;52.050;11.036;2022-11-15T11:24:52;20.92;;;12.07;;
5058;SDS011;2548;52.050;11.036;2022-11-15T11:27:35;13.68;;;10.60;;
5058;SDS011;2548;52.050;11.036;2022-11-15T11:30:09;14.77;;;12.35;;
5058;SDS011;2548;52.050;11.036;2022-11-15T11:32:46;20.52;;;10.98;;
5058;SDS011;2548;52.050;11.036;2022-11-15T11:35:22;14.00;;;11.30;;
5058;SDS011;2548;52.050;11.036;2022-11-15T11:37:58;12.73;;;11.38;;
5058;SDS011;2548;52.050;11.036;2022-11-15T11:40:59;14.30;;;11.55;;
5058;SDS011;2548;52.050;11.036;2022-11-15T11:43:34;14.25;;;11.30;;
5058;SDS011;2548;52.050;11.036;2022-11-15T11:46:22;14.88;;;11.38;;
5058;SDS011;2548;52.050;11.036;2022-11-15T11:49:08;12.73;;;10.50;;
5058;SDS011;2548;52.050;11.036;2022-11-15T11:51:38;13.20;;;10.57;;
5058;SDS011;2548;52.050;11.036;2022-11-15T11:54:11;13.43;;;9.80;;
5058;SDS011;2548;52.050;11.036;2022-11-15T11:56:42;16.83;;;11.27;;
5058;SDS011;2548;52.050;11.036;2022-11-15T11:59:12;14.13;;;10.50;;
5058;SDS011;2548;52.050;11.036;2022-11-15T12:01:46;14.18;;;9.85;;
5058;SDS011;2548;52.050;11.036;2022-11-15T12:04:15;14.27;;;9.93;;
5058;SDS011;2548;52.050;11.036;2022-11-15T12:06:47;10.77;;;9.60;;
5058;SDS011;2548;52.050;11.036;2022-11-15T12:09:21;12.63;;;9.35;;
5058;SDS011;2548;52.050;11.036;2022-11-15T12:11:55;12.52;;;8.30;;
5058;SDS011;2548;52.050;11.036;2022-11-15T12:14:31;9.75;;;8.05;;
5058;SDS011;2548;52.050;11.036;2022-11-15T12:17:02;10.48;;;8.70;;
5058;SDS011;2548;52.050;11.036;2022-11-15T12:19:30;13.15;;;8.25;;
5058;SDS011;2548;52.050;11.036;2022-11-15T12:22:00;11.45;;;8.10;;
5058;SDS011;2548;52.050;11.036;2022-11-15T12:24:34;13.40;;;7.88;;
5058;SDS011;2548;52.050;11.036;2022-11-15T12:27:06;14.10;;;7.20;;
5058;SDS011;2548;52.050;11.036;2022-11-15T12:29:41;9.57;;;7.78;;
5058;SDS011;2548;52.050;11.036;2022-11-15T12:32:17;10.10;;;8.32;;
5058;SDS011;2548;52.050;11.036;2022-11-15T12:34:52;11.80;;;8.98;;
5058;SDS011;2548;52.050;11.036;2022-11-15T12:40:23;16.75;;;8.65;;
5058;SDS011;2548;52.050;11.036;2022-11-15T12:43:01;11.07;;;8.95;;
5058;SDS011;2548;52.050;11.036;2022-11-15T12:45:56;14.43;;;8.95;;
5058;SDS011;2548;52.050;11.036;2022-11-15T12:48:46;10.90;;;9.40;;
5058;SDS011;2548;52.050;11.036;2022-11-15T12:51:19;11.55;;;9.10;;
5058;SDS011;2548;52.050;11.036;2022-11-15T12:53:47;11.27;;;9.32;;
5058;SDS011;2548;52.050;11.036;2022-11-15T12:56:20;10.65;;;9.52;;
5058;SDS011;2548;52.050;11.036;2022-11-15T12:58:50;14.63;;;9.05;;
5058;SDS011;2548;52.050;11.036;2022-11-15T13:04:27;14.30;;;9.63;;
5058;SDS011;2548;52.050;11.036;2022-11-15T13:06:56;14.80;;;10.40;;
5058;SDS011;2548;52.050;11.036;2022-11-15T13:18:33;18.25;;;12.00;;
5058;SDS011;2548;52.050;11.036;2022-11-15T13:21:03;17.48;;;11.00;;
5058;SDS011;2548;52.050;11.036;2022-11-15T13:24:02;17.63;;;11.80;;
5058;SDS011;2548;52.050;11.036;2022-11-15T13:26:30;15.85;;;11.80;;
5058;SDS011;2548;52.050;11.036;2022-11-15T13:28:59;15.07;;;10.68;;
5058;SDS011;2548;52.050;11.036;2022-11-15T13:31:29;13.82;;;11.13;;
5058;SDS011;2548;52.050;11.036;2022-11-15T13:34:03;16.10;;;10.93;;
5058;SDS011;2548;52.050;11.036;2022-11-15T13:36:49;18.35;;;10.40;;
5058;SDS011;2548;52.050;11.036;2022-11-15T13:39:23;15.77;;;10.68;;
5058;SDS011;2548;52.050;11.036;2022-11-15T13:41:53;12.93;;;10.20;;
5058;SDS011;2548;52.050;11.036;2022-11-15T13:44:23;12.77;;;10.55;;
5058;SDS011;2548;52.050;11.036;2022-11-15T13:47:02;16.13;;;11.43;;
5058;SDS011;2548;52.050;11.036;2022-11-15T13:49:31;15.93;;;11.38;;
5058;SDS011;2548;52.050;11.036;2022-11-15T13:52:01;12.32;;;10.75;;
5058;SDS011;2548;52.050;11.036;2022-11-15T13:54:33;13.05;;;10.60;;
5058;SDS011;2548;52.050;11.036;2022-11-15T13:57:03;18.77;;;12.02;;
5058;SDS011;2548;52.050;11.036;2022-11-15T13:59:34;16.17;;;10.88;;
5058;SDS011;2548;52.050;11.036;2022-11-15T14:02:10;15.57;;;10.13;;
5058;SDS011;2548;52.050;11.036;2022-11-15T14:04:45;30.33;;;10.75;;
5058;SDS011;2548;52.050;11.036;2022-11-15T14:07:15;15.88;;;9.80;;
5058;SDS011;2548;52.050;11.036;2022-11-15T14:09:45;17.15;;;11.45;;
5058;SDS011;2548;52.050;11.036;2022-11-15T14:12:27;17.55;;;12.43;;
5058;SDS011;2548;52.050;11.036;2022-11-15T14:14:58;17.38;;;10.60;;
5058;SDS011;2548;52.050;11.036;2022-11-15T14:17:34;10.75;;;9.65;;
5058;SDS011;2548;52.050;11.036;2022-11-15T14:20:19;12.40;;;9.30;;
5058;SDS011;2548;52.050;11.036;2022-11-15T14:22:53;20.20;;;10.95;;
5058;SDS011;2548;52.050;11.036;2022-11-15T14:25:21;12.25;;;10.60;;
5058;SDS011;2548;52.050;11.036;2022-11-15T14:28:09;19.20;;;11.38;;
5058;SDS011;2548;52.050;11.036;2022-11-15T14:30:40;16.88;;;10.73;;
5058;SDS011;2548;52.050;11.036;2022-11-15T14:35:56;15.23;;;9.77;;
5058;SDS011;2548;52.050;11.036;2022-11-15T14:38:25;14.00;;;9.70;;
5058;SDS011;2548;52.050;11.036;2022-11-15T14:40:52;19.85;;;10.65;;
5058;SDS011;2548;52.050;11.036;2022-11-15T14:43:22;15.57;;;10.98;;
5058;SDS011;2548;52.050;11.036;2022-11-15T14:45:51;20.60;;;10.88;;
5058;SDS011;2548;52.050;11.036;2022-11-15T14:48:18;13.75;;;10.35;;
5058;SDS011;2548;52.050;11.036;2022-11-15T14:50:46;16.70;;;11.50;;
5058;SDS011;2548;52.050;11.036;2022-11-15T14:53:13;10.90;;;9.07;;
5058;SDS011;2548;52.050;11.036;2022-11-15T14:55:42;12.13;;;9.55;;
5058;SDS011;2548;52.050;11.036;2022-11-15T14:58:10;12.65;;;10.32;;
5058;SDS011;2548;52.050;11.036;2022-11-15T15:00:38;10.63;;;8.80;;
5058;SDS011;2548;52.050;11.036;2022-11-15T15:03:08;12.23;;;10.20;;
5058;SDS011;2548;52.050;11.036;2022-11-15T15:05:37;16.73;;;9.07;;
5058;SDS011;2548;52.050;11.036;2022-11-15T15:08:06;14.80;;;10.40;;
5058;SDS011;2548;52.050;11.036;2022-11-15T15:10:35;14.90;;;9.93;;
5058;SDS011;2548;52.050;11.036;2022-11-15T15:13:04;12.40;;;10.40;;
5058;SDS011;2548;52.050;11.036;2022-11-15T15:15:33;13.20;;;10.48;;
5058;SDS011;2548;52.050;11.036;2022-11-15T15:18:01;10.07;;;8.95;;
5058;SDS011;2548;52.050;11.036;2022-11-15T15:20:31;14.82;;;10.27;;
5058;SDS011;2548;52.050;11.036;2022-11-15T15:22:59;14.10;;;8.18;;
5058;SDS011;2548;52.050;11.036;2022-11-15T15:25:27;15.57;;;10.40;;
5058;SDS011;2548;52.050;11.036;2022-11-15T15:27:57;14.20;;;9.80;;
5058;SDS011;2548;52.050;11.036;2022-11-15T15:30:27;13.50;;;10.10;;
5058;SDS011;2548;52.050;11.036;2022-11-15T15:32:55;14.88;;;9.55;;
5058;SDS011;2548;52.050;11.036;2022-11-15T15:35:23;13.57;;;8.98;;
5058;SDS011;2548;52.050;11.036;2022-11-15T15:37:57;15.23;;;11.02;;
5058;SDS011;2548;52.050;11.036;2022-11-15T15:40:25;12.25;;;9.73;;
5058;SDS011;2548;52.050;11.036;2022-11-15T15:42:54;16.40;;;11.50;;
5058;SDS011;2548;52.050;11.036;2022-11-15T15:45:22;12.98;;;11.13;;
5058;SDS011;2548;52.050;11.036;2022-11-15T15:47:52;18.05;;;10.35;;
5058;SDS011;2548;52.050;11.036;2022-11-15T15:50:21;17.48;;;10.77;;
5058;SDS011;2548;52.050;11.036;2022-11-15T15:52:51;20.05;;;10.32;;
5058;SDS011;2548;52.050;11.036;2022-11-15T15:55:21;15.50;;;10.25;;
5058;SDS011;2548;52.050;11.036;2022-11-15T15:57:50;15.55;;;9.27;;
5058;SDS011;2548;52.050;11.036;2022-11-15T16:00:19;14.88;;;10.88;;
5058;SDS011;2548;52.050;11.036;2022-11-15T16:02:50;36.33;;;19.15;;
5058;SDS011;2548;52.050;11.036;2022-11-15T16:05:20;20.42;;;13.90;;
5058;SDS011;2548;52.050;11.036;2022-11-15T16:07:49;17.88;;;12.60;;
5058;SDS011;2548;52.050;11.036;2022-11-15T16:10:21;21.63;;;12.45;;
5058;SDS011;2548;52.050;11.036;2022-11-15T16:12:53;17.73;;;14.00;;
5058;SDS011;2548;52.050;11.036;2022-11-15T16:15:23;18.58;;;11.70;;
5058;SDS011;2548;52.050;11.036;2022-11-15T16:17:53;24.20;;;15.85;;
5058;SDS011;2548;52.050;11.036;2022-11-15T16:20:32;17.73;;;12.80;;
5058;SDS011;2548;52.050;11.036;2022-11-15T16:23:03;25.45;;;15.55;;
5058;SDS011;2548;52.050;11.036;2022-11-15T16:25:37;22.98;;;16.52;;
5058;SDS011;2548;52.050;11.036;2022-11-15T16:28:17;19.08;;;14.57;;
5058;SDS011;2548;52.050;11.036;2022-11-15T16:30:48;17.17;;;11.70;;
5058;SDS011;2548;52.050;11.036;2022-11-15T16:33:26;15.00;;;12.00;;